createdAt,value
2023-05-22T00:01:50.018Z,9.57
2023-05-22T00:04:21.512Z,9.58
2023-05-22T00:06:49.867Z,9.50
2023-05-22T00:09:18.094Z,9.50
2023-05-22T00:11:46.202Z,9.48
2023-05-22T00:14:14.255Z,9.58
2023-05-22T00:16:42.183Z,9.63
2023-05-22T00:19:16.700Z,9.55
2023-05-22T00:21:45.483Z,9.42
2023-05-22T00:24:13.577Z,9.47
2023-05-22T00:26:41.275Z,9.40
2023-05-22T00:29:09.544Z,9.32
2023-05-22T00:31:37.692Z,9.23
2023-05-22T00:34:05.882Z,9.14
2023-05-22T00:36:33.637Z,9.15
2023-05-22T00:39:01.651Z,9.22
2023-05-22T00:41:29.636Z,9.13
2023-05-22T00:43:57.852Z,9.07
2023-05-22T00:46:25.658Z,9.05
2023-05-22T00:48:53.726Z,9.00
2023-05-22T00:51:22.738Z,9.03
2023-05-22T00:53:51.214Z,9.03
2023-05-22T00:56:19.579Z,9.07
2023-05-22T00:58:48.125Z,9.13
2023-05-22T01:01:16.165Z,9.09
2023-05-22T01:03:46.075Z,9.04
2023-05-22T01:06:18.468Z,8.98
2023-05-22T01:08:46.553Z,8.96
2023-05-22T01:11:36.998Z,9.12
2023-05-22T01:14:25.693Z,9.07
2023-05-22T01:17:16.306Z,8.95
2023-05-22T01:19:50.918Z,8.81
2023-05-22T01:22:44.028Z,8.73
2023-05-22T01:25:26.673Z,8.80
2023-05-22T01:28:10.101Z,8.78
2023-05-22T01:30:52.737Z,8.78
2023-05-22T01:33:22.081Z,8.74
2023-05-22T01:35:54.189Z,8.76
2023-05-22T01:38:22.519Z,8.89
2023-05-22T01:40:51.196Z,8.80
2023-05-22T01:43:19.112Z,8.68
2023-05-22T01:45:47.469Z,8.68
2023-05-22T01:48:15.184Z,8.66
2023-05-22T01:50:45.390Z,8.66
2023-05-22T01:53:33.184Z,8.57
2023-05-22T01:56:10.143Z,8.60
2023-05-22T01:58:52.573Z,8.51
2023-05-22T02:01:22.718Z,8.44
2023-05-22T02:03:56.657Z,8.36
2023-05-22T02:06:29.112Z,8.60
2023-05-22T02:08:57.161Z,8.61
2023-05-22T02:11:28.503Z,8.44
2023-05-22T02:13:57.571Z,8.32
2023-05-22T02:16:25.889Z,8.31
2023-05-22T02:19:06.365Z,8.34
2023-05-22T02:21:36.207Z,8.37
2023-05-22T02:24:04.109Z,8.38
2023-05-22T02:26:32.440Z,8.40
2023-05-22T02:29:01.423Z,8.52
2023-05-22T02:31:29.880Z,8.44
2023-05-22T02:33:58.059Z,8.44
2023-05-22T02:36:26.416Z,8.37
2023-05-22T02:38:55.579Z,8.37
2023-05-22T02:41:25.193Z,8.56
2023-05-22T02:43:53.809Z,8.59
2023-05-22T02:46:21.945Z,8.82
2023-05-22T02:48:49.729Z,8.75
2023-05-22T02:51:19.707Z,8.80
2023-05-22T02:53:47.985Z,8.88
2023-05-22T02:56:16.091Z,8.94
2023-05-22T02:58:43.832Z,8.84
2023-05-22T03:01:11.831Z,8.87
2023-05-22T03:03:39.656Z,9.03
2023-05-22T03:06:08.949Z,9.09
2023-05-22T03:08:41.686Z,9.07
2023-05-22T03:11:10.134Z,9.10
2023-05-22T03:13:37.840Z,9.18
2023-05-22T03:16:06.357Z,9.31
2023-05-22T03:18:34.117Z,9.42
2023-05-22T03:21:02.218Z,9.44
2023-05-22T03:23:29.974Z,9.38
2023-05-22T03:25:58.043Z,9.47
2023-05-22T03:28:30.002Z,9.99
2023-05-22T03:30:58.098Z,10.40
2023-05-22T03:33:29.827Z,10.66
2023-05-22T03:35:57.977Z,11.04
2023-05-22T03:38:26.386Z,11.42
2023-05-22T03:40:54.836Z,11.43
2023-05-22T03:43:22.729Z,11.36
2023-05-22T03:45:51.581Z,11.37
2023-05-22T03:48:20.073Z,11.32
2023-05-22T03:50:48.222Z,11.31
2023-05-22T03:53:15.960Z,11.37
2023-05-22T03:55:44.072Z,11.41
2023-05-22T03:58:11.782Z,11.38
2023-05-22T04:00:40.408Z,11.39
2023-05-22T04:03:13.051Z,11.43
2023-05-22T04:05:41.451Z,11.68
2023-05-22T04:08:10.749Z,11.81
2023-05-22T04:10:39.144Z,12.22
2023-05-22T04:13:07.116Z,12.37
2023-05-22T04:15:35.429Z,12.44
2023-05-22T04:18:03.261Z,13.08
2023-05-22T04:20:32.351Z,13.03
2023-05-22T04:23:00.053Z,13.27
2023-05-22T04:25:28.046Z,14.52
2023-05-22T04:27:55.839Z,16.24
2023-05-22T04:30:25.770Z,15.89
2023-05-22T04:32:53.764Z,16.69
2023-05-22T04:35:23.630Z,16.63
2023-05-22T04:37:51.633Z,15.97
2023-05-22T04:40:19.776Z,15.91
2023-05-22T04:42:47.946Z,15.67
2023-05-22T04:45:16.015Z,15.48
2023-05-22T04:47:43.835Z,15.40
2023-05-22T04:50:12.112Z,15.53
2023-05-22T04:52:39.899Z,15.76
2023-05-22T04:55:08.651Z,15.76
2023-05-22T04:57:36.419Z,15.77
2023-05-22T05:00:06.047Z,15.99
2023-05-22T05:02:35.632Z,16.20
2023-05-22T05:05:03.897Z,16.02
2023-05-22T05:07:31.654Z,16.33
2023-05-22T05:09:59.663Z,16.98
2023-05-22T05:12:28.180Z,17.89
2023-05-22T05:14:56.494Z,17.57
2023-05-22T05:17:24.254Z,17.48
2023-05-22T05:19:52.263Z,17.69
2023-05-22T05:22:20.120Z,17.68
2023-05-22T05:24:48.198Z,17.58
2023-05-22T05:27:16.077Z,17.67
2023-05-22T05:29:45.633Z,17.81
2023-05-22T05:32:22.637Z,17.95
2023-05-22T05:35:12.495Z,17.84
2023-05-22T05:37:49.997Z,18.10
2023-05-22T05:40:19.222Z,18.24
2023-05-22T05:42:51.391Z,18.41
2023-05-22T05:45:24.006Z,18.46
2023-05-22T05:47:53.164Z,18.65
2023-05-22T05:50:21.446Z,18.41
2023-05-22T05:52:49.253Z,19.02
2023-05-22T05:55:19.444Z,19.98
2023-05-22T05:57:48.418Z,20.42
2023-05-22T06:00:23.672Z,21.87
2023-05-22T06:02:52.980Z,21.94
2023-05-22T06:05:34.985Z,21.85
2023-05-22T06:08:19.934Z,22.62
2023-05-22T06:10:48.425Z,23.21
2023-05-22T06:13:34.172Z,23.57
2023-05-22T06:16:05.719Z,24.00
2023-05-22T06:18:35.037Z,24.22
2023-05-22T06:21:03.016Z,23.98
2023-05-22T06:23:30.961Z,24.51
2023-05-22T06:25:59.410Z,24.13
2023-05-22T06:28:27.950Z,23.91
2023-05-22T06:30:58.054Z,23.68
2023-05-22T06:33:28.152Z,23.45
2023-05-22T06:35:56.668Z,23.35
2023-05-22T06:38:24.524Z,23.16
2023-05-22T06:40:52.494Z,23.04
2023-05-22T06:43:23.773Z,23.05
2023-05-22T06:45:56.332Z,23.19
2023-05-22T06:48:24.182Z,23.39
2023-05-22T06:51:02.665Z,23.66
2023-05-22T06:53:30.473Z,24.16
2023-05-22T06:55:58.980Z,25.15
2023-05-22T06:58:36.966Z,26.27
2023-05-22T07:01:07.888Z,26.83
2023-05-22T07:03:41.211Z,26.54
2023-05-22T07:06:29.212Z,26.42
2023-05-22T07:08:57.721Z,27.31
2023-05-22T07:11:25.918Z,29.01
2023-05-22T07:13:53.755Z,30.68
2023-05-22T07:16:23.597Z,32.30
2023-05-22T07:18:51.514Z,34.14
2023-05-22T07:21:19.840Z,34.14
2023-05-22T07:23:48.549Z,36.60
2023-05-22T07:26:16.679Z,36.91
2023-05-22T07:28:51.204Z,35.86
2023-05-22T07:31:19.394Z,35.89
2023-05-22T07:33:48.884Z,37.63
2023-05-22T07:36:19.163Z,38.30
2023-05-22T07:38:47.335Z,38.86
2023-05-22T07:41:15.890Z,39.15
2023-05-22T07:43:43.944Z,39.90
2023-05-22T07:46:15.591Z,39.74
2023-05-22T07:48:55.186Z,40.19
2023-05-22T07:51:23.332Z,39.34
2023-05-22T07:53:53.469Z,39.72
2023-05-22T07:56:22.241Z,39.58
2023-05-22T07:58:52.089Z,39.25
2023-05-22T08:01:22.621Z,39.63
2023-05-22T08:03:50.519Z,39.92
2023-05-22T08:06:19.090Z,39.94
2023-05-22T08:08:46.956Z,39.27
2023-05-22T08:11:14.948Z,39.77
2023-05-22T08:13:42.811Z,40.20
2023-05-22T08:16:11.193Z,40.17
2023-05-22T08:18:39.037Z,40.99
2023-05-22T08:21:07.086Z,40.73
2023-05-22T08:23:36.469Z,40.45
2023-05-22T08:26:04.893Z,39.55
2023-05-22T08:28:32.855Z,38.41
2023-05-22T08:31:01.141Z,38.54
2023-05-22T08:33:28.945Z,37.16
2023-05-22T08:35:56.888Z,36.12
2023-05-22T08:38:24.679Z,35.13
2023-05-22T08:40:55.800Z,34.70
2023-05-22T08:43:24.625Z,34.18
2023-05-22T08:46:06.098Z,34.52
2023-05-22T08:48:34.274Z,35.22
2023-05-22T08:51:06.094Z,35.99
2023-05-22T08:53:38.995Z,36.97
2023-05-22T08:56:08.729Z,35.21
2023-05-22T08:58:38.366Z,35.61
2023-05-22T09:01:07.531Z,35.08
2023-05-22T09:03:37.768Z,33.35
2023-05-22T09:06:11.177Z,31.86
2023-05-22T09:08:39.404Z,30.02
2023-05-22T09:11:07.453Z,29.84
2023-05-22T09:13:35.263Z,29.09
2023-05-22T09:16:11.436Z,29.64
2023-05-22T09:18:40.176Z,30.75
2023-05-22T09:21:21.568Z,32.18
2023-05-22T09:24:01.347Z,33.08
2023-05-22T09:26:29.974Z,33.84
2023-05-22T09:29:00.135Z,34.32
2023-05-22T09:31:32.015Z,34.68
2023-05-22T09:34:00.066Z,34.85
2023-05-22T09:36:34.849Z,35.32
2023-05-22T09:39:04.450Z,33.61
2023-05-22T09:41:37.746Z,33.24
2023-05-22T09:44:26.981Z,32.38
2023-05-22T09:46:55.876Z,32.93
2023-05-22T09:49:23.587Z,33.90
2023-05-22T09:51:54.281Z,35.33
2023-05-22T09:54:25.830Z,36.13
2023-05-22T09:56:59.275Z,35.94
2023-05-22T09:59:30.531Z,36.03
2023-05-22T10:02:02.057Z,35.79
2023-05-22T10:04:33.189Z,35.63
2023-05-22T10:07:03.793Z,35.03
2023-05-22T10:09:35.758Z,33.78
2023-05-22T10:12:08.124Z,33.63
2023-05-22T10:14:36.714Z,33.30
2023-05-22T10:17:07.005Z,31.82
2023-05-22T10:19:39.458Z,30.87
2023-05-22T10:22:11.206Z,30.04
2023-05-22T10:24:41.252Z,29.40
2023-05-22T10:27:09.320Z,29.10
2023-05-22T10:29:58.246Z,29.13
2023-05-22T10:32:42.539Z,28.60
2023-05-22T10:35:58.029Z,28.39
2023-05-22T10:38:26.180Z,28.21
2023-05-22T10:40:54.909Z,28.15
2023-05-22T10:43:23.588Z,28.22
2023-05-22T10:46:06.570Z,28.29
2023-05-22T10:48:39.527Z,28.00
2023-05-22T10:51:08.549Z,27.74
2023-05-22T10:53:37.094Z,27.82
2023-05-22T10:56:14.112Z,27.80
2023-05-22T10:58:57.665Z,27.92
2023-05-22T11:01:28.611Z,27.89
2023-05-22T11:04:07.178Z,27.68
2023-05-22T11:06:49.020Z,27.86
2023-05-22T11:09:31.897Z,27.86
2023-05-22T11:12:25.153Z,27.83
2023-05-22T11:14:58.127Z,27.97
2023-05-22T11:17:36.353Z,27.98
2023-05-22T11:20:05.836Z,28.25
2023-05-22T11:22:38.387Z,28.29
2023-05-22T11:25:20.301Z,28.43
2023-05-22T11:27:49.280Z,28.86
2023-05-22T11:30:17.779Z,28.46
2023-05-22T11:32:48.061Z,28.66
2023-05-22T11:35:17.887Z,28.51
2023-05-22T11:37:46.206Z,28.85
2023-05-22T11:40:22.059Z,28.72
2023-05-22T11:42:50.070Z,28.73
2023-05-22T11:45:18.159Z,28.08
2023-05-22T11:47:46.574Z,28.40
2023-05-22T11:50:17.932Z,28.39
2023-05-22T11:52:53.687Z,28.67
2023-05-22T11:55:22.964Z,28.71
2023-05-22T11:57:50.769Z,28.58
2023-05-22T12:00:19.401Z,28.26
2023-05-22T12:02:50.398Z,27.98
2023-05-22T12:05:21.707Z,27.74
2023-05-22T12:07:49.822Z,27.88
2023-05-22T12:10:18.062Z,27.96
2023-05-22T12:12:48.139Z,28.09
2023-05-22T12:15:22.625Z,27.78
2023-05-22T12:17:54.671Z,27.99
2023-05-22T12:20:22.695Z,27.62
2023-05-22T12:22:50.491Z,27.47
2023-05-22T12:25:18.549Z,27.24
2023-05-22T12:27:46.403Z,27.18
2023-05-22T12:30:15.449Z,27.28
2023-05-22T12:32:49.096Z,27.43
2023-05-22T12:35:18.161Z,27.65
2023-05-22T12:37:52.254Z,27.60
2023-05-22T12:40:20.529Z,27.21
2023-05-22T12:42:48.887Z,27.19
2023-05-22T12:45:18.091Z,27.25
2023-05-22T12:47:46.285Z,27.10
2023-05-22T12:50:14.692Z,27.07
2023-05-22T12:52:42.367Z,26.99
2023-05-22T12:55:11.611Z,26.82
2023-05-22T12:57:39.393Z,27.13
2023-05-22T13:00:07.937Z,27.16
2023-05-22T13:02:35.839Z,27.38
2023-05-22T13:05:04.214Z,27.58
2023-05-22T13:07:32.430Z,27.70
2023-05-22T13:10:00.583Z,27.22
2023-05-22T13:12:28.305Z,27.32
2023-05-22T13:14:56.418Z,27.45
2023-05-22T13:17:24.482Z,27.24
2023-05-22T13:19:54.514Z,27.22
2023-05-22T13:22:22.976Z,26.75
2023-05-22T13:24:51.173Z,26.72
2023-05-22T13:27:19.294Z,26.70
2023-05-22T13:29:47.253Z,27.09
2023-05-22T13:32:15.301Z,27.23
2023-05-22T13:34:43.694Z,27.14
2023-05-22T13:37:11.717Z,26.75
2023-05-22T13:39:39.984Z,26.38
2023-05-22T13:42:08.374Z,26.12
2023-05-22T13:44:36.404Z,25.96
2023-05-22T13:47:05.200Z,26.10
2023-05-22T13:49:33.304Z,26.46
2023-05-22T13:52:01.082Z,26.24
2023-05-22T13:54:29.302Z,25.97
2023-05-22T13:56:57.849Z,25.73
2023-05-22T13:59:26.168Z,25.92
2023-05-22T14:01:53.922Z,25.87
2023-05-22T14:04:21.925Z,25.91
2023-05-22T14:06:49.731Z,25.84
2023-05-22T14:09:18.149Z,25.69
2023-05-22T14:11:46.563Z,25.50
2023-05-22T14:14:14.598Z,25.53
2023-05-22T14:16:42.406Z,25.52
2023-05-22T14:19:10.590Z,25.37
2023-05-22T14:21:38.418Z,24.95
2023-05-22T14:24:06.586Z,24.82
2023-05-22T14:26:34.347Z,24.75
2023-05-22T14:29:02.515Z,24.66
2023-05-22T14:31:30.448Z,24.62
2023-05-22T14:33:58.535Z,24.42
2023-05-22T14:36:26.268Z,24.39
2023-05-22T14:38:57.050Z,24.30
2023-05-22T14:41:24.775Z,24.12
2023-05-22T14:43:52.740Z,24.29
2023-05-22T14:46:20.538Z,24.37
2023-05-22T14:48:48.956Z,24.20
2023-05-22T14:51:18.410Z,24.29
2023-05-22T14:53:46.461Z,24.21
2023-05-22T14:56:14.214Z,24.25
2023-05-22T14:58:42.310Z,24.35
2023-05-22T15:01:10.067Z,24.27
2023-05-22T15:03:38.324Z,24.14
2023-05-22T15:06:06.229Z,24.18
2023-05-22T15:08:34.195Z,24.18
2023-05-22T15:11:01.929Z,24.33
2023-05-22T15:13:29.967Z,24.17
2023-05-22T15:15:58.513Z,24.16
2023-05-22T15:18:27.323Z,24.02
2023-05-22T15:20:55.350Z,24.02
2023-05-22T15:23:25.454Z,23.97
2023-05-22T15:25:54.368Z,23.88
2023-05-22T15:28:23.209Z,23.91
2023-05-22T15:30:50.933Z,23.72
2023-05-22T15:33:18.989Z,23.76
2023-05-22T15:35:47.638Z,23.80
2023-05-22T15:38:16.698Z,23.74
2023-05-22T15:40:44.729Z,23.80
2023-05-22T15:43:12.767Z,23.71
2023-05-22T15:45:41.136Z,23.64
2023-05-22T15:48:09.420Z,23.63
2023-05-22T15:50:37.233Z,23.49
2023-05-22T15:53:05.247Z,23.48
2023-05-22T15:55:34.026Z,23.39
2023-05-22T15:58:07.779Z,23.33
2023-05-22T16:00:41.059Z,23.20
2023-05-22T16:03:11.367Z,23.14
2023-05-22T16:05:40.350Z,23.15
2023-05-22T16:08:10.523Z,22.98
2023-05-22T16:10:41.483Z,22.99
2023-05-22T16:13:10.725Z,22.91
2023-05-22T16:15:40.329Z,22.82
2023-05-22T16:18:09.736Z,22.79
2023-05-22T16:20:37.695Z,22.79
2023-05-22T16:23:05.765Z,22.84
2023-05-22T16:25:33.495Z,22.80
2023-05-22T16:28:01.517Z,22.84
2023-05-22T16:30:30.153Z,22.78
2023-05-22T16:32:58.397Z,22.70
2023-05-22T16:35:26.234Z,22.60
2023-05-22T16:37:54.220Z,22.54
2023-05-22T16:40:22.078Z,22.50
2023-05-22T16:42:51.737Z,22.50
2023-05-22T16:45:19.557Z,22.44
2023-05-22T16:47:47.541Z,22.49
2023-05-22T16:50:15.461Z,22.31
2023-05-22T16:52:43.433Z,22.24
2023-05-22T16:55:11.272Z,22.09
2023-05-22T16:57:40.201Z,21.91
2023-05-22T17:00:10.946Z,21.88
2023-05-22T17:02:39.306Z,21.77
2023-05-22T17:05:08.266Z,21.67
2023-05-22T17:07:36.213Z,21.52
2023-05-22T17:10:04.070Z,21.52
2023-05-22T17:12:32.213Z,21.31
2023-05-22T17:14:59.999Z,21.32
2023-05-22T17:17:28.175Z,21.13
2023-05-22T17:19:56.122Z,20.95
2023-05-22T17:22:24.180Z,20.81
2023-05-22T17:24:51.890Z,20.77
2023-05-22T17:27:34.478Z,20.70
2023-05-22T17:30:04.868Z,20.61
2023-05-22T17:32:33.121Z,20.42
2023-05-22T17:35:02.104Z,20.45
2023-05-22T17:37:30.147Z,20.44
2023-05-22T17:39:57.874Z,20.26
2023-05-22T17:42:25.942Z,20.05
2023-05-22T17:44:53.709Z,19.90
2023-05-22T17:47:21.909Z,19.78
2023-05-22T17:49:49.775Z,19.66
2023-05-22T17:52:17.794Z,19.53
2023-05-22T17:54:45.636Z,19.43
2023-05-22T17:57:13.770Z,19.27
2023-05-22T17:59:41.694Z,19.27
2023-05-22T18:02:09.858Z,19.18
2023-05-22T18:04:37.712Z,18.99
2023-05-22T18:07:05.952Z,18.84
2023-05-22T18:09:33.668Z,18.68
2023-05-22T18:12:03.583Z,18.55
2023-05-22T18:14:31.748Z,18.39
2023-05-22T18:16:59.620Z,18.23
2023-05-22T18:19:27.725Z,18.05
2023-05-22T18:21:55.656Z,17.92
2023-05-22T18:24:25.063Z,17.75
2023-05-22T18:26:54.761Z,17.57
2023-05-22T18:29:23.046Z,17.41
2023-05-22T18:31:50.952Z,17.26
2023-05-22T18:34:19.082Z,17.10
2023-05-22T18:36:46.781Z,16.96
2023-05-22T18:39:14.939Z,16.81
2023-05-22T18:41:42.610Z,16.67
2023-05-22T18:44:10.682Z,16.58
2023-05-22T18:46:38.515Z,16.40
2023-05-22T18:49:06.504Z,16.38
2023-05-22T18:51:35.803Z,16.25
2023-05-22T18:54:03.852Z,16.10
2023-05-22T18:56:32.066Z,16.03
2023-05-22T18:59:00.117Z,15.89
2023-05-22T19:01:27.956Z,15.75
2023-05-22T19:03:55.981Z,15.67
2023-05-22T19:06:25.957Z,15.55
2023-05-22T19:08:53.928Z,15.42
2023-05-22T19:11:21.749Z,15.28
2023-05-22T19:13:49.781Z,15.23
2023-05-22T19:16:17.687Z,15.10
2023-05-22T19:18:46.127Z,15.06
2023-05-22T19:21:13.906Z,15.07
2023-05-22T19:23:42.871Z,14.92
2023-05-22T19:26:10.811Z,14.73
2023-05-22T19:28:38.841Z,14.59
2023-05-22T19:31:06.597Z,14.48
2023-05-22T19:33:34.823Z,14.37
2023-05-22T19:36:02.977Z,14.25
2023-05-22T19:38:31.258Z,14.15
2023-05-22T19:40:59.026Z,14.12
2023-05-22T19:43:27.180Z,14.00
2023-05-22T19:45:55.602Z,13.91
2023-05-22T19:48:23.737Z,13.86
2023-05-22T19:50:51.562Z,13.89
2023-05-22T19:53:19.590Z,13.94
2023-05-22T19:55:47.711Z,13.96
2023-05-22T19:58:15.859Z,13.96
2023-05-22T20:00:44.035Z,13.95
2023-05-22T20:03:12.622Z,13.84
2023-05-22T20:05:40.777Z,13.81
2023-05-22T20:08:10.248Z,13.70
2023-05-22T20:10:38.272Z,13.56
2023-05-22T20:13:07.798Z,13.44
2023-05-22T20:15:35.604Z,13.42
2023-05-22T20:18:03.999Z,13.42
2023-05-22T20:20:31.838Z,13.27
2023-05-22T20:22:59.855Z,13.14
2023-05-22T20:25:27.601Z,13.08
2023-05-22T20:27:55.625Z,12.95
2023-05-22T20:30:23.476Z,12.88
2023-05-22T20:32:52.043Z,12.78
2023-05-22T20:35:20.268Z,12.81
2023-05-22T20:37:48.808Z,12.86
2023-05-22T20:40:17.535Z,12.81
2023-05-22T20:42:46.373Z,12.91
2023-05-22T20:45:16.135Z,12.81
2023-05-22T20:47:44.724Z,12.75
2023-05-22T20:50:12.561Z,12.62
2023-05-22T20:52:40.695Z,12.48
2023-05-22T20:55:09.019Z,12.39
2023-05-22T20:57:36.943Z,12.41
2023-05-22T21:00:06.597Z,12.54
2023-05-22T21:02:34.699Z,12.63
2023-05-22T21:05:02.666Z,12.39
2023-05-22T21:07:30.677Z,12.18
2023-05-22T21:09:58.461Z,12.01
2023-05-22T21:12:26.448Z,11.95
2023-05-22T21:14:54.176Z,11.83
2023-05-22T21:17:22.848Z,11.75
2023-05-22T21:19:50.624Z,11.68
2023-05-22T21:22:18.625Z,11.57
2023-05-22T21:24:46.395Z,11.80
2023-05-22T21:27:14.406Z,11.92
2023-05-22T21:29:42.095Z,11.79
2023-05-22T21:32:10.095Z,11.82
2023-05-22T21:34:37.791Z,11.66
2023-05-22T21:37:05.914Z,11.65
2023-05-22T21:39:33.637Z,11.55
2023-05-22T21:42:01.665Z,11.55
2023-05-22T21:44:29.363Z,11.48
2023-05-22T21:46:57.340Z,11.44
2023-05-22T21:49:25.085Z,11.41
2023-05-22T21:51:53.170Z,11.37
2023-05-22T21:54:21.025Z,11.30
2023-05-22T21:56:49.033Z,11.21
2023-05-22T21:59:16.806Z,11.18
2023-05-22T22:01:44.816Z,11.07
2023-05-22T22:04:12.710Z,11.00
2023-05-22T22:06:41.009Z,10.95
2023-05-22T22:09:09.319Z,10.89
2023-05-22T22:11:37.293Z,10.87
2023-05-22T22:14:05.274Z,10.87
2023-05-22T22:16:35.659Z,11.03
2023-05-22T22:19:04.936Z,11.26
2023-05-22T22:21:33.601Z,11.27
2023-05-22T22:24:01.364Z,11.06
2023-05-22T22:26:30.724Z,10.95
2023-05-22T22:28:58.983Z,10.88
2023-05-22T22:31:26.982Z,10.74
2023-05-22T22:33:54.707Z,10.88
2023-05-22T22:36:22.944Z,10.76
2023-05-22T22:38:50.784Z,10.67
2023-05-22T22:41:18.774Z,10.67
2023-05-22T22:43:46.856Z,10.57
2023-05-22T22:46:14.857Z,10.53
2023-05-22T22:48:42.730Z,10.55
2023-05-22T22:51:10.811Z,10.71
2023-05-22T22:53:38.782Z,10.78
2023-05-22T22:56:06.855Z,10.61
2023-05-22T22:58:34.642Z,10.53
2023-05-22T23:01:02.677Z,10.37
2023-05-22T23:03:30.661Z,10.30
2023-05-22T23:05:58.608Z,10.22
2023-05-22T23:08:26.397Z,10.27
2023-05-22T23:10:54.549Z,10.14
2023-05-22T23:13:22.345Z,10.07
2023-05-22T23:15:50.452Z,10.05
2023-05-22T23:18:18.265Z,10.04
2023-05-22T23:20:46.465Z,9.99
2023-05-22T23:23:14.283Z,9.92
2023-05-22T23:25:42.665Z,9.86
2023-05-22T23:28:10.662Z,9.78
2023-05-22T23:30:38.752Z,9.77
2023-05-22T23:33:06.517Z,9.99
2023-05-22T23:35:34.551Z,9.93
2023-05-22T23:38:02.383Z,9.90
2023-05-22T23:40:30.410Z,9.87
2023-05-22T23:42:58.200Z,9.78
2023-05-22T23:45:26.268Z,9.75
2023-05-22T23:47:54.162Z,9.80
2023-05-22T23:50:22.168Z,9.68
2023-05-22T23:52:49.933Z,9.81
2023-05-22T23:55:17.983Z,9.72
2023-05-22T23:57:45.760Z,9.66
